createdAt,value
2022-12-15T00:02:40.360Z,91.63
2022-12-15T00:05:25.704Z,91.63
2022-12-15T00:08:10.563Z,90.71
2022-12-15T00:10:55.493Z,92.22
2022-12-15T00:13:40.348Z,91.29
2022-12-15T00:16:25.564Z,91.16
2022-12-15T00:19:10.882Z,91.88
2022-12-15T00:21:55.743Z,92.62
2022-12-15T00:24:40.821Z,92.39
2022-12-15T00:27:25.779Z,91.27
2022-12-15T00:30:10.761Z,89.93
2022-12-15T00:32:55.686Z,89.66
2022-12-15T00:35:40.689Z,90.39
2022-12-15T00:38:25.697Z,92.11
2022-12-15T00:40:59.198Z,94.06
2022-12-15T00:43:25.647Z,92.24
2022-12-15T00:46:10.905Z,90.77
2022-12-15T00:48:37.330Z,89.80
2022-12-15T00:51:03.665Z,91.21
2022-12-15T00:53:48.854Z,91.19
2022-12-15T00:56:33.773Z,90.90
2022-12-15T00:59:18.710Z,91.13
2022-12-15T01:02:03.831Z,90.65
2022-12-15T01:04:49.043Z,92.16
2022-12-15T01:07:33.921Z,93.31
2022-12-15T01:10:18.963Z,92.45
2022-12-15T01:13:03.870Z,90.99
2022-12-15T01:15:48.891Z,91.66
2022-12-15T01:18:33.901Z,92.73
2022-12-15T01:21:00.223Z,92.58
2022-12-15T01:23:26.672Z,91.76
2022-12-15T01:25:53.165Z,90.83
2022-12-15T01:28:19.466Z,91.15
2022-12-15T01:30:46.022Z,91.54
2022-12-15T01:33:12.342Z,92.75
2022-12-15T01:35:38.695Z,93.54
2022-12-15T01:38:05.047Z,93.58
2022-12-15T01:40:46.764Z,93.48
2022-12-15T01:43:13.454Z,93.44
2022-12-15T01:45:39.771Z,93.36
2022-12-15T01:48:06.145Z,91.69
2022-12-15T01:50:32.508Z,90.81
2022-12-15T01:52:58.840Z,90.37
2022-12-15T01:55:25.145Z,90.06
2022-12-15T01:57:51.465Z,89.45
2022-12-15T02:00:17.792Z,89.77
2022-12-15T02:02:44.339Z,90.20
2022-12-15T02:05:10.822Z,91.24
2022-12-15T02:07:37.167Z,91.27
2022-12-15T02:10:03.478Z,90.82
2022-12-15T02:12:29.802Z,90.94
2022-12-15T02:14:56.128Z,90.62
2022-12-15T02:17:22.434Z,90.80
2022-12-15T02:19:48.766Z,91.14
2022-12-15T02:22:15.883Z,91.12
2022-12-15T02:24:42.220Z,90.42
2022-12-15T02:27:08.534Z,89.96
2022-12-15T02:29:34.845Z,90.06
2022-12-15T02:32:01.188Z,90.63
2022-12-15T02:34:27.700Z,90.79
2022-12-15T02:36:54.011Z,90.98
2022-12-15T02:39:20.327Z,91.46
2022-12-15T02:41:46.647Z,91.51
2022-12-15T02:44:12.959Z,91.29
2022-12-15T02:46:39.297Z,91.26
2022-12-15T02:49:05.618Z,90.68
2022-12-15T02:51:31.940Z,90.82
2022-12-15T02:53:58.304Z,90.57
2022-12-15T02:56:24.674Z,90.10
2022-12-15T02:58:51.022Z,90.07
2022-12-15T03:01:17.512Z,90.48
2022-12-15T03:03:43.915Z,90.37
2022-12-15T03:06:10.238Z,90.21
2022-12-15T03:08:36.552Z,90.29
2022-12-15T03:11:02.866Z,90.64
2022-12-15T03:13:29.748Z,91.57
2022-12-15T03:15:58.266Z,91.93
2022-12-15T03:18:24.587Z,92.46
2022-12-15T03:20:51.043Z,92.64
2022-12-15T03:23:17.347Z,92.54
2022-12-15T03:25:43.667Z,92.28
2022-12-15T03:28:09.987Z,91.98
2022-12-15T03:30:36.308Z,91.16
2022-12-15T03:33:02.694Z,91.17
2022-12-15T03:35:29.029Z,91.28
2022-12-15T03:37:55.342Z,90.47
2022-12-15T03:40:21.663Z,90.01
2022-12-15T03:42:48.754Z,89.81
2022-12-15T03:45:15.061Z,89.98
2022-12-15T03:47:41.907Z,89.72
2022-12-15T03:50:08.251Z,89.24
2022-12-15T03:52:34.563Z,90.15
2022-12-15T03:55:00.869Z,91.24
2022-12-15T03:57:27.183Z,91.74
2022-12-15T03:59:53.499Z,91.43
2022-12-15T04:02:19.954Z,91.35
2022-12-15T04:04:46.404Z,91.99
2022-12-15T04:07:13.028Z,92.00
2022-12-15T04:09:39.352Z,91.20
2022-12-15T04:12:05.726Z,91.01
2022-12-15T04:14:32.040Z,90.69
2022-12-15T04:16:58.424Z,90.88
2022-12-15T04:19:43.564Z,90.87
2022-12-15T04:22:12.623Z,91.20
2022-12-15T04:25:01.482Z,90.99
2022-12-15T04:27:46.391Z,91.41
2022-12-15T04:30:31.465Z,91.41
2022-12-15T04:33:16.531Z,91.08
2022-12-15T04:36:01.494Z,90.84
2022-12-15T04:38:50.286Z,89.80
2022-12-15T04:41:35.670Z,91.09
2022-12-15T04:44:20.597Z,91.17
2022-12-15T04:47:05.430Z,91.16
2022-12-15T04:49:50.403Z,90.69
2022-12-15T04:52:35.461Z,89.95
2022-12-15T04:55:20.443Z,89.58
2022-12-15T04:58:05.429Z,88.85
2022-12-15T05:00:50.363Z,89.89
2022-12-15T05:03:35.683Z,91.22
2022-12-15T05:06:21.077Z,90.94
2022-12-15T05:09:05.995Z,89.89
2022-12-15T05:11:50.901Z,88.60
2022-12-15T05:14:35.778Z,88.74
2022-12-15T05:17:20.832Z,88.99
2022-12-15T05:20:06.079Z,88.73
2022-12-15T05:22:51.210Z,89.76
2022-12-15T05:25:35.995Z,89.99
2022-12-15T05:28:20.907Z,89.85
2022-12-15T05:31:05.924Z,89.49
2022-12-15T05:33:32.550Z,89.38
2022-12-15T05:35:59.163Z,89.27
2022-12-15T05:38:25.551Z,89.06
2022-12-15T05:40:51.860Z,89.16
2022-12-15T05:43:21.682Z,89.12
2022-12-15T05:45:52.472Z,88.67
2022-12-15T05:48:18.838Z,88.81
2022-12-15T05:50:45.178Z,88.80
2022-12-15T05:53:11.523Z,88.58
2022-12-15T05:55:37.833Z,88.33
2022-12-15T05:58:04.214Z,88.32
2022-12-15T06:00:30.534Z,88.60
2022-12-15T06:02:56.898Z,89.46
2022-12-15T06:05:23.233Z,90.37
2022-12-15T06:07:49.591Z,89.76
2022-12-15T06:10:15.917Z,89.23
2022-12-15T06:12:42.263Z,89.73
2022-12-15T06:15:08.584Z,90.59
2022-12-15T06:17:34.894Z,90.81
2022-12-15T06:20:01.231Z,91.09
2022-12-15T06:22:27.539Z,90.22
2022-12-15T06:24:53.857Z,89.83
2022-12-15T06:27:20.216Z,89.53
2022-12-15T06:29:46.526Z,89.52
2022-12-15T06:32:12.859Z,90.06
2022-12-15T06:34:39.173Z,89.78
2022-12-15T06:37:06.484Z,89.68
2022-12-15T06:39:32.790Z,90.83
2022-12-15T06:41:59.120Z,90.59
2022-12-15T06:44:25.435Z,90.08
2022-12-15T06:46:51.798Z,90.17
2022-12-15T06:49:18.229Z,91.32
2022-12-15T06:51:45.166Z,91.52
2022-12-15T06:54:11.580Z,90.88
2022-12-15T06:56:38.867Z,91.08
2022-12-15T06:59:05.193Z,90.87
2022-12-15T07:01:35.303Z,90.20
2022-12-15T07:04:03.234Z,90.09
2022-12-15T07:06:30.367Z,89.59
2022-12-15T07:08:56.907Z,89.28
2022-12-15T07:11:23.402Z,89.10
2022-12-15T07:13:50.013Z,88.78
2022-12-15T07:16:16.361Z,88.60
2022-12-15T07:18:42.696Z,88.79
2022-12-15T07:21:09.144Z,89.10
2022-12-15T07:23:53.367Z,88.83
2022-12-15T07:26:20.954Z,89.21
2022-12-15T07:28:47.349Z,88.87
2022-12-15T07:31:13.879Z,88.19
2022-12-15T07:33:40.256Z,88.49
2022-12-15T07:36:08.324Z,89.35
2022-12-15T07:38:35.049Z,89.29
2022-12-15T07:41:02.167Z,88.44
2022-12-15T07:43:28.732Z,88.33
2022-12-15T07:45:55.411Z,87.77
2022-12-15T07:48:21.850Z,87.67
2022-12-15T07:50:48.184Z,87.40
2022-12-15T07:53:16.745Z,86.80
2022-12-15T07:56:06.344Z,86.54
2022-12-15T07:58:29.404Z,86.80
2022-12-15T08:00:55.766Z,86.71
2022-12-15T08:03:22.304Z,86.12
2022-12-15T08:05:48.816Z,85.83
2022-12-15T08:08:15.738Z,86.40
2022-12-15T08:10:42.116Z,86.23
2022-12-15T08:13:08.779Z,86.21
2022-12-15T08:15:35.090Z,85.98
2022-12-15T08:18:01.787Z,85.61
2022-12-15T08:20:29.264Z,86.14
2022-12-15T08:22:55.646Z,85.04
2022-12-15T08:25:21.979Z,84.88
2022-12-15T08:27:48.351Z,84.89
2022-12-15T08:30:14.667Z,85.15
2022-12-15T08:32:41.004Z,84.50
2022-12-15T08:35:25.333Z,85.74
2022-12-15T08:37:54.529Z,85.55
2022-12-15T08:40:20.860Z,86.48
2022-12-15T08:42:47.165Z,86.70
2022-12-15T08:45:13.537Z,86.79
2022-12-15T08:47:39.999Z,87.20
2022-12-15T08:50:06.842Z,85.87
2022-12-15T08:52:33.250Z,85.46
2022-12-15T08:54:59.600Z,86.52
2022-12-15T08:57:25.975Z,86.78
2022-12-15T08:59:52.317Z,85.94
2022-12-15T09:02:18.800Z,84.85
2022-12-15T09:04:45.508Z,83.67
2022-12-15T09:07:11.906Z,83.58
2022-12-15T09:09:38.216Z,83.14
2022-12-15T09:12:04.599Z,83.72
2022-12-15T09:14:34.431Z,82.79
2022-12-15T09:17:00.976Z,81.58
2022-12-15T09:19:27.992Z,82.31
2022-12-15T09:21:54.313Z,81.73
2022-12-15T09:24:32.058Z,81.26
2022-12-15T09:27:00.870Z,80.19
2022-12-15T09:29:27.215Z,81.45
2022-12-15T09:31:53.530Z,81.70
2022-12-15T09:34:19.861Z,80.98
2022-12-15T09:36:46.171Z,80.10
2022-12-15T09:39:12.912Z,79.92
2022-12-15T09:41:39.246Z,80.03
2022-12-15T09:44:05.580Z,80.65
2022-12-15T09:46:32.005Z,79.87
2022-12-15T09:48:58.428Z,78.30
2022-12-15T09:51:24.765Z,78.32
2022-12-15T09:53:55.822Z,77.98
2022-12-15T09:56:22.620Z,77.57
2022-12-15T09:58:50.767Z,78.22
2022-12-15T10:01:17.153Z,77.79
2022-12-15T10:03:43.616Z,76.87
2022-12-15T10:06:21.171Z,76.76
2022-12-15T10:08:48.610Z,78.21
2022-12-15T10:11:17.368Z,77.55
2022-12-15T10:13:43.726Z,77.05
2022-12-15T10:16:10.132Z,76.02
2022-12-15T10:18:36.500Z,74.91
2022-12-15T10:21:02.880Z,73.80
2022-12-15T10:23:29.784Z,72.72
2022-12-15T10:25:56.459Z,71.97
2022-12-15T10:28:22.788Z,72.08
2022-12-15T10:30:49.159Z,70.67
2022-12-15T10:33:17.189Z,69.92
2022-12-15T10:35:44.293Z,68.03
2022-12-15T10:38:10.692Z,67.62
2022-12-15T10:40:37.002Z,68.07
2022-12-15T10:43:03.371Z,68.24
2022-12-15T10:45:29.686Z,68.48
2022-12-15T10:47:56.038Z,68.54
2022-12-15T10:53:08.738Z,67.13
2022-12-15T10:55:35.049Z,67.60
2022-12-15T10:58:01.362Z,66.71
2022-12-15T11:00:28.017Z,65.95
2022-12-15T11:02:54.824Z,66.49
2022-12-15T11:05:21.371Z,66.87
2022-12-15T11:07:47.701Z,66.33
2022-12-15T11:10:14.014Z,66.14
2022-12-15T11:12:58.331Z,66.40
2022-12-15T11:15:24.963Z,66.11
2022-12-15T11:17:51.373Z,66.21
2022-12-15T11:20:17.716Z,68.50
2022-12-15T11:22:44.033Z,67.89
2022-12-15T11:25:11.600Z,67.52
2022-12-15T11:27:43.448Z,68.59
2022-12-15T11:30:09.872Z,68.67
2022-12-15T11:32:36.178Z,67.86
2022-12-15T11:35:02.618Z,66.71
2022-12-15T11:37:34.200Z,67.69
2022-12-15T11:40:02.658Z,66.89
2022-12-15T11:42:28.957Z,66.31
2022-12-15T11:44:55.336Z,65.43
2022-12-15T11:47:21.877Z,67.08
2022-12-15T11:49:48.215Z,66.22
2022-12-15T11:52:15.133Z,66.87
2022-12-15T11:54:41.547Z,67.32
2022-12-15T11:57:07.871Z,67.87
2022-12-15T11:59:34.203Z,67.10
2022-12-15T12:02:03.369Z,66.91
2022-12-15T12:04:30.067Z,66.91
2022-12-15T12:06:56.457Z,66.44
2022-12-15T12:09:22.815Z,66.88
2022-12-15T12:11:50.601Z,68.03
2022-12-15T12:14:17.011Z,68.37
2022-12-15T12:16:43.330Z,69.37
2022-12-15T12:19:09.721Z,69.10
2022-12-15T12:21:36.374Z,68.92
2022-12-15T12:24:02.686Z,69.56
2022-12-15T12:26:29.076Z,69.86
2022-12-15T12:28:58.147Z,70.02
2022-12-15T12:31:24.480Z,70.03
2022-12-15T12:33:50.853Z,69.28
2022-12-15T12:36:17.175Z,69.24
2022-12-15T12:38:46.410Z,68.73
2022-12-15T12:41:17.324Z,68.99
2022-12-15T12:43:43.688Z,68.80
2022-12-15T12:46:10.267Z,69.25
2022-12-15T12:48:37.846Z,68.70
2022-12-15T12:51:04.473Z,69.10
2022-12-15T12:53:31.260Z,69.36
2022-12-15T12:55:57.827Z,69.00
2022-12-15T12:58:25.064Z,68.69
2022-12-15T13:00:56.697Z,69.07
2022-12-15T13:03:23.323Z,68.85
2022-12-15T13:05:50.552Z,68.93
2022-12-15T13:08:17.125Z,68.92
2022-12-15T13:10:43.515Z,69.05
2022-12-15T13:13:09.839Z,68.57
2022-12-15T13:15:37.370Z,69.06
2022-12-15T13:18:03.831Z,68.64
2022-12-15T13:20:30.251Z,69.06
2022-12-15T13:22:56.991Z,68.94
2022-12-15T13:25:23.296Z,69.48
2022-12-15T13:27:49.637Z,69.67
2022-12-15T13:30:16.519Z,69.54
2022-12-15T13:32:42.912Z,69.51
2022-12-15T13:35:09.291Z,69.40
2022-12-15T13:37:35.635Z,69.69
2022-12-15T13:40:02.026Z,69.55
2022-12-15T13:42:45.315Z,70.33
2022-12-15T13:45:14.680Z,70.66
2022-12-15T13:47:40.988Z,70.83
2022-12-15T13:50:07.398Z,70.88
2022-12-15T13:53:16.558Z,70.64
2022-12-15T13:55:27.303Z,70.72
2022-12-15T13:57:54.283Z,71.18
2022-12-15T14:00:20.768Z,70.93
2022-12-15T14:02:47.164Z,71.05
2022-12-15T14:05:15.016Z,71.33
2022-12-15T14:07:41.342Z,71.64
2022-12-15T14:10:07.693Z,72.33
2022-12-15T14:12:34.036Z,73.00
2022-12-15T14:15:00.380Z,73.10
2022-12-15T14:17:26.699Z,73.06
2022-12-15T14:19:53.087Z,73.34
2022-12-15T14:22:26.731Z,73.52
2022-12-15T14:24:54.318Z,74.18
2022-12-15T14:27:20.640Z,74.43
2022-12-15T14:29:46.979Z,74.84
2022-12-15T14:32:17.081Z,75.23
2022-12-15T14:34:43.488Z,75.37
2022-12-15T14:37:09.839Z,75.83
2022-12-15T14:39:36.254Z,76.15
2022-12-15T14:42:02.957Z,76.49
2022-12-15T14:44:37.316Z,76.90
2022-12-15T14:47:05.886Z,77.27
2022-12-15T14:49:32.250Z,77.58
2022-12-15T14:51:58.557Z,77.92
2022-12-15T14:54:25.555Z,78.24
2022-12-15T14:56:51.857Z,78.76
2022-12-15T14:59:19.227Z,79.21
2022-12-15T15:01:45.677Z,79.45
2022-12-15T15:04:11.998Z,79.80
2022-12-15T15:06:38.352Z,79.56
2022-12-15T15:09:04.658Z,80.09
2022-12-15T15:11:31.068Z,80.55
2022-12-15T15:13:57.414Z,81.24
2022-12-15T15:16:23.833Z,81.46
2022-12-15T15:18:50.186Z,81.17
2022-12-15T15:21:16.504Z,81.44
2022-12-15T15:23:42.828Z,81.31
2022-12-15T15:26:09.673Z,81.66
2022-12-15T15:28:36.182Z,81.75
2022-12-15T15:31:06.995Z,82.22
2022-12-15T15:33:33.504Z,82.29
2022-12-15T15:36:00.088Z,82.10
2022-12-15T15:38:30.801Z,82.52
2022-12-15T15:40:57.336Z,82.93
2022-12-15T15:43:23.983Z,83.23
2022-12-15T15:45:50.429Z,83.21
2022-12-15T15:48:16.830Z,83.78
2022-12-15T15:50:43.407Z,84.32
2022-12-15T15:53:09.727Z,84.55
2022-12-15T15:55:39.660Z,84.89
2022-12-15T15:58:06.249Z,85.32
2022-12-15T16:00:32.556Z,84.93
2022-12-15T16:02:59.111Z,85.32
2022-12-15T16:05:25.587Z,86.40
2022-12-15T16:07:51.905Z,87.02
2022-12-15T16:10:18.235Z,85.88
2022-12-15T16:12:44.597Z,87.21
2022-12-15T16:15:10.932Z,86.59
2022-12-15T16:17:37.282Z,87.05
2022-12-15T16:20:04.606Z,87.17
2022-12-15T16:22:30.910Z,86.72
2022-12-15T16:24:57.218Z,86.13
2022-12-15T16:27:23.578Z,85.85
2022-12-15T16:29:49.899Z,86.77
2022-12-15T16:32:16.235Z,86.04
2022-12-15T16:34:42.538Z,86.86
2022-12-15T16:37:08.868Z,85.44
2022-12-15T16:39:35.269Z,85.38
2022-12-15T16:42:01.588Z,85.22
2022-12-15T16:44:27.952Z,84.65
2022-12-15T16:46:54.450Z,85.72
2022-12-15T16:49:20.828Z,85.68
2022-12-15T16:51:47.150Z,86.77
2022-12-15T16:54:13.468Z,85.48
2022-12-15T16:56:39.943Z,85.54
2022-12-15T16:59:31.866Z,85.36
2022-12-15T17:01:53.631Z,85.17
2022-12-15T17:04:21.566Z,84.72
2022-12-15T17:06:48.024Z,84.46
2022-12-15T17:09:14.331Z,84.31
2022-12-15T17:11:40.775Z,84.00
2022-12-15T17:14:07.648Z,84.86
2022-12-15T17:16:34.078Z,83.36
2022-12-15T17:19:00.450Z,84.67
2022-12-15T17:21:26.802Z,83.85
2022-12-15T17:23:53.183Z,85.10
2022-12-15T17:26:27.714Z,84.57
2022-12-15T17:28:54.755Z,85.10
2022-12-15T17:31:21.283Z,84.60
2022-12-15T17:33:48.142Z,84.31
2022-12-15T17:36:14.448Z,84.81
2022-12-15T17:38:40.767Z,84.75
2022-12-15T17:41:07.096Z,85.83
2022-12-15T17:43:35.925Z,85.15
2022-12-15T17:46:02.701Z,85.60
2022-12-15T17:48:29.065Z,85.28
2022-12-15T17:50:55.464Z,85.01
2022-12-15T17:53:21.769Z,85.14
2022-12-15T17:55:48.138Z,84.81
2022-12-15T17:58:14.449Z,85.23
2022-12-15T18:00:45.883Z,85.38
2022-12-15T18:03:15.599Z,85.57
2022-12-15T18:05:42.090Z,85.63
2022-12-15T18:08:08.439Z,86.10
2022-12-15T18:10:34.810Z,86.76
2022-12-15T18:13:01.202Z,85.86
2022-12-15T18:15:27.534Z,85.27
2022-12-15T18:17:53.930Z,85.61
2022-12-15T18:20:20.810Z,85.51
2022-12-15T18:22:47.140Z,84.66
2022-12-15T18:25:13.463Z,84.69
2022-12-15T18:27:40.499Z,84.86
2022-12-15T18:30:06.874Z,85.18
2022-12-15T18:32:38.350Z,84.76
2022-12-15T18:35:05.018Z,84.67
2022-12-15T18:37:31.431Z,84.83
2022-12-15T18:40:04.183Z,84.44
2022-12-15T18:42:31.442Z,84.51
2022-12-15T18:44:58.782Z,84.66
2022-12-15T18:47:26.335Z,83.59
2022-12-15T18:49:52.711Z,84.11
2022-12-15T18:52:19.078Z,84.61
2022-12-15T18:54:45.401Z,84.13
2022-12-15T18:57:11.884Z,85.38
2022-12-15T18:59:38.267Z,86.53
2022-12-15T19:02:04.745Z,86.46
2022-12-15T19:04:31.106Z,85.51
2022-12-15T19:07:01.128Z,85.82
2022-12-15T19:09:27.443Z,84.95
2022-12-15T19:12:16.803Z,85.03
2022-12-15T19:14:43.420Z,85.25
2022-12-15T19:17:28.600Z,85.83
2022-12-15T19:20:13.514Z,86.66
2022-12-15T19:22:39.829Z,87.67
2022-12-15T19:25:06.169Z,87.55
2022-12-15T19:27:32.471Z,86.92
2022-12-15T19:29:58.780Z,86.65
2022-12-15T19:32:26.814Z,87.00
2022-12-15T19:34:53.126Z,86.94
2022-12-15T19:37:19.770Z,86.53
2022-12-15T19:39:47.126Z,87.09
2022-12-15T19:42:13.433Z,87.18
2022-12-15T19:44:39.987Z,87.54
2022-12-15T19:47:06.295Z,87.72
2022-12-15T19:49:32.882Z,87.00
2022-12-15T19:51:59.222Z,87.15
2022-12-15T19:54:25.534Z,87.00
2022-12-15T19:56:51.900Z,87.06
2022-12-15T19:59:18.203Z,86.31
2022-12-15T20:01:44.670Z,86.66
2022-12-15T20:04:11.092Z,86.15
2022-12-15T20:09:09.875Z,86.75
2022-12-15T20:11:36.185Z,86.47
2022-12-15T20:14:02.529Z,86.50
2022-12-15T20:16:28.936Z,86.95
2022-12-15T20:18:55.480Z,86.89
2022-12-15T20:21:22.707Z,88.52
2022-12-15T20:23:49.312Z,88.69
2022-12-15T20:26:15.614Z,87.79
2022-12-15T20:28:41.913Z,87.70
2022-12-15T20:31:08.228Z,88.26
2022-12-15T20:33:34.864Z,88.51
2022-12-15T20:36:01.453Z,88.63
2022-12-15T20:38:27.814Z,88.20
2022-12-15T20:40:54.121Z,88.03
2022-12-15T20:43:20.638Z,87.89
2022-12-15T20:45:46.998Z,87.70
2022-12-15T20:48:13.775Z,88.30
2022-12-15T20:50:41.224Z,88.47
2022-12-15T20:53:07.676Z,88.13
2022-12-15T20:55:35.083Z,87.46
2022-12-15T20:58:01.393Z,87.81
2022-12-15T21:00:27.716Z,87.39
2022-12-15T21:02:55.062Z,87.07
2022-12-15T21:05:21.836Z,87.01
2022-12-15T21:07:48.173Z,88.09
2022-12-15T21:10:14.523Z,88.19
2022-12-15T21:12:40.903Z,88.40
2022-12-15T21:15:07.892Z,88.06
2022-12-15T21:17:37.443Z,88.43
2022-12-15T21:20:07.921Z,89.21
2022-12-15T21:22:34.238Z,90.59
2022-12-15T21:25:01.240Z,90.53
2022-12-15T21:27:27.557Z,91.11
2022-12-15T21:29:53.933Z,91.27
2022-12-15T21:32:21.325Z,90.49
2022-12-15T21:34:47.704Z,89.25
2022-12-15T21:37:14.003Z,89.15
2022-12-15T21:39:43.777Z,89.66
2022-12-15T21:42:10.105Z,89.28
2022-12-15T21:44:36.430Z,89.02
2022-12-15T21:47:02.729Z,89.14
2022-12-15T21:49:29.049Z,88.98
2022-12-15T21:51:55.516Z,88.73
2022-12-15T21:54:26.060Z,88.06
2022-12-15T21:56:55.319Z,88.06
2022-12-15T21:59:21.745Z,89.16
2022-12-15T22:01:48.176Z,89.03
2022-12-15T22:04:14.542Z,89.17
2022-12-15T22:06:43.676Z,88.86
2022-12-15T22:09:13.602Z,88.88
2022-12-15T22:11:39.911Z,89.41
2022-12-15T22:14:06.262Z,89.30
2022-12-15T22:16:32.628Z,90.25
2022-12-15T22:18:59.019Z,90.67
2022-12-15T22:21:25.324Z,90.74
2022-12-15T22:23:51.663Z,89.93
2022-12-15T22:26:17.983Z,89.75
2022-12-15T22:28:44.748Z,91.39
2022-12-15T22:31:11.093Z,90.64
2022-12-15T22:33:37.463Z,90.97
2022-12-15T22:36:03.880Z,90.09
2022-12-15T22:38:30.600Z,90.15
2022-12-15T22:40:57.141Z,90.35
2022-12-15T22:43:23.495Z,90.13
2022-12-15T22:45:49.835Z,90.71
2022-12-15T22:48:18.289Z,90.65
2022-12-15T22:50:44.611Z,90.55
2022-12-15T22:53:10.916Z,90.71
2022-12-15T22:55:37.237Z,91.45
2022-12-15T22:58:03.618Z,90.77
2022-12-15T23:00:29.951Z,90.51
2022-12-15T23:05:22.847Z,90.15
2022-12-15T23:07:49.175Z,90.28
2022-12-15T23:10:34.343Z,90.12
2022-12-15T23:13:00.655Z,89.51
2022-12-15T23:15:45.975Z,89.45
2022-12-15T23:18:12.330Z,89.82
2022-12-15T23:20:38.652Z,89.13
2022-12-15T23:23:05.016Z,89.04
2022-12-15T23:25:31.318Z,89.67
2022-12-15T23:27:57.695Z,92.15
2022-12-15T23:30:24.441Z,91.97
2022-12-15T23:32:50.888Z,92.10
2022-12-15T23:35:21.620Z,91.29
2022-12-15T23:37:47.942Z,92.08
2022-12-15T23:40:19.909Z,91.67
2022-12-15T23:42:46.562Z,91.72
2022-12-15T23:45:12.939Z,90.83
2022-12-15T23:47:39.305Z,91.12
2022-12-15T23:50:05.613Z,91.14
2022-12-15T23:52:31.930Z,91.06
2022-12-15T23:54:58.243Z,90.45
2022-12-15T23:57:24.584Z,90.63
2022-12-15T23:59:50.960Z,90.99
